createdAt,value
2022-08-27T00:01:52.539Z,25.81
2022-08-27T00:04:22.273Z,25.72
2022-08-27T00:06:50.963Z,25.72
2022-08-27T00:09:26.752Z,25.46
2022-08-27T00:11:55.977Z,25.31
2022-08-27T00:14:24.780Z,25.45
2022-08-27T00:16:53.270Z,25.42
2022-08-27T00:19:23.205Z,25.18
2022-08-27T00:21:51.496Z,25.38
2022-08-27T00:24:19.778Z,25.67
2022-08-27T00:26:48.182Z,25.12
2022-08-27T00:29:16.650Z,24.72
2022-08-27T00:31:45.318Z,24.88
2022-08-27T00:34:20.312Z,24.81
2022-08-27T00:36:51.138Z,24.82
2022-08-27T00:39:19.729Z,24.58
2022-08-27T00:41:48.510Z,24.77
2022-08-27T00:44:16.932Z,25.16
2022-08-27T00:46:48.075Z,25.03
2022-08-27T00:49:20.926Z,25.19
2022-08-27T00:51:54.393Z,25.58
2022-08-27T00:54:23.394Z,25.47
2022-08-27T00:56:52.063Z,25.27
2022-08-27T00:59:23.043Z,25.26
2022-08-27T01:02:20.564Z,25.29
2022-08-27T01:04:51.347Z,25.48
2022-08-27T01:07:22.345Z,25.32
2022-08-27T01:09:51.464Z,25.20
2022-08-27T01:12:21.027Z,25.25
2022-08-27T01:14:49.542Z,24.77
2022-08-27T01:17:18.565Z,24.91
2022-08-27T01:19:49.196Z,25.11
2022-08-27T01:22:29.518Z,25.18
2022-08-27T01:25:01.615Z,24.81
2022-08-27T01:27:32.371Z,24.84
2022-08-27T01:30:00.650Z,24.90
2022-08-27T01:32:33.023Z,24.84
2022-08-27T01:35:01.885Z,24.64
2022-08-27T01:37:30.188Z,25.17
2022-08-27T01:39:59.894Z,24.66
2022-08-27T01:42:30.477Z,25.04
2022-08-27T01:45:00.677Z,24.82
2022-08-27T01:47:31.052Z,24.77
2022-08-27T01:50:00.391Z,24.91
2022-08-27T01:52:31.047Z,24.82
2022-08-27T01:55:01.181Z,24.94
2022-08-27T01:57:29.619Z,24.92
2022-08-27T01:59:58.221Z,25.12
2022-08-27T02:02:27.137Z,24.88
2022-08-27T02:04:55.508Z,25.04
2022-08-27T02:07:23.902Z,24.76
2022-08-27T02:09:52.366Z,24.92
2022-08-27T02:12:22.089Z,25.36
2022-08-27T02:14:50.375Z,25.25
2022-08-27T02:17:18.646Z,25.27
2022-08-27T02:19:46.908Z,24.70
2022-08-27T02:22:15.175Z,25.09
2022-08-27T02:24:43.472Z,25.62
2022-08-27T02:27:11.920Z,25.34
2022-08-27T02:29:41.541Z,25.73
2022-08-27T02:32:22.456Z,25.87
2022-08-27T02:34:58.689Z,25.64
2022-08-27T02:37:26.988Z,25.90
2022-08-27T02:39:55.338Z,25.68
2022-08-27T02:42:23.597Z,25.13
2022-08-27T02:44:55.070Z,24.55
2022-08-27T02:47:23.356Z,24.69
2022-08-27T02:49:51.617Z,25.00
2022-08-27T02:52:22.822Z,24.71
2022-08-27T02:54:54.037Z,25.05
2022-08-27T02:57:22.907Z,25.15
2022-08-27T02:59:51.313Z,25.20
2022-08-27T03:02:21.384Z,25.07
2022-08-27T03:04:51.398Z,24.65
2022-08-27T03:07:19.873Z,24.67
2022-08-27T03:09:48.127Z,24.69
2022-08-27T03:12:17.376Z,24.72
2022-08-27T03:14:46.182Z,24.70
2022-08-27T03:17:28.495Z,24.62
2022-08-27T03:19:58.139Z,24.79
2022-08-27T03:22:27.109Z,24.71
2022-08-27T03:24:56.527Z,24.77
2022-08-27T03:27:24.908Z,24.74
2022-08-27T03:29:53.230Z,24.80
2022-08-27T03:32:21.547Z,24.83
2022-08-27T03:34:49.889Z,24.54
2022-08-27T03:37:19.570Z,24.54
2022-08-27T03:39:47.923Z,24.28
2022-08-27T03:42:16.258Z,24.34
2022-08-27T03:44:45.102Z,24.26
2022-08-27T03:47:13.447Z,24.29
2022-08-27T03:49:41.987Z,24.25
2022-08-27T03:52:10.708Z,23.93
2022-08-27T03:54:40.435Z,24.13
2022-08-27T03:57:08.827Z,24.07
2022-08-27T03:59:37.120Z,23.99
2022-08-27T04:02:05.862Z,24.00
2022-08-27T04:04:34.188Z,23.77
2022-08-27T04:07:02.722Z,24.01
2022-08-27T04:09:31.024Z,24.21
2022-08-27T04:12:00.634Z,24.17
2022-08-27T04:14:29.148Z,24.31
2022-08-27T04:16:57.962Z,24.08
2022-08-27T04:19:28.550Z,24.08
2022-08-27T04:22:01.751Z,23.94
2022-08-27T04:24:31.938Z,24.18
2022-08-27T04:27:02.104Z,24.10
2022-08-27T04:29:31.852Z,24.29
2022-08-27T04:32:01.142Z,23.69
2022-08-27T04:34:29.413Z,23.98
2022-08-27T04:36:58.412Z,24.16
2022-08-27T04:39:26.902Z,23.97
2022-08-27T04:41:56.662Z,24.12
2022-08-27T04:44:28.231Z,24.32
2022-08-27T04:46:57.672Z,24.55
2022-08-27T04:49:27.451Z,24.41
2022-08-27T04:51:56.488Z,24.44
2022-08-27T04:54:32.411Z,24.56
2022-08-27T04:57:01.805Z,24.62
2022-08-27T04:59:31.757Z,24.21
2022-08-27T05:02:00.028Z,24.61
2022-08-27T05:04:31.926Z,24.77
2022-08-27T05:07:01.565Z,24.47
2022-08-27T05:09:29.810Z,24.89
2022-08-27T05:11:58.076Z,25.12
2022-08-27T05:14:30.144Z,25.31
2022-08-27T05:17:00.459Z,25.35
2022-08-27T05:19:29.176Z,25.28
2022-08-27T05:21:57.550Z,25.19
2022-08-27T05:24:25.903Z,25.20
2022-08-27T05:26:54.371Z,25.53
2022-08-27T05:29:22.580Z,25.50
2022-08-27T05:31:51.015Z,25.60
2022-08-27T05:34:25.618Z,25.93
2022-08-27T05:36:54.996Z,25.42
2022-08-27T05:39:23.280Z,25.83
2022-08-27T05:41:53.024Z,26.20
2022-08-27T05:47:10.208Z,26.30
2022-08-27T05:49:40.120Z,25.57
2022-08-27T05:52:11.876Z,26.07
2022-08-27T05:54:40.882Z,26.20
2022-08-27T05:57:09.149Z,26.04
2022-08-27T05:59:55.174Z,26.59
2022-08-27T06:02:23.664Z,26.13
2022-08-27T06:04:53.627Z,26.56
2022-08-27T06:07:22.249Z,26.91
2022-08-27T06:09:50.473Z,26.95
2022-08-27T06:12:18.768Z,27.11
2022-08-27T06:14:46.950Z,26.97
2022-08-27T06:17:15.282Z,27.54
2022-08-27T06:19:45.820Z,27.39
2022-08-27T06:22:15.882Z,27.01
2022-08-27T06:24:44.195Z,27.18
2022-08-27T06:27:16.231Z,27.49
2022-08-27T06:29:45.205Z,27.71
2022-08-27T06:32:14.826Z,27.75
2022-08-27T06:34:43.258Z,27.49
2022-08-27T06:37:11.549Z,27.76
2022-08-27T06:39:41.885Z,27.83
2022-08-27T06:42:13.317Z,27.98
2022-08-27T06:44:41.747Z,27.78
2022-08-27T06:47:10.019Z,28.03
2022-08-27T06:49:40.896Z,28.27
2022-08-27T06:52:09.262Z,28.34
2022-08-27T06:54:37.589Z,28.33
2022-08-27T06:57:08.039Z,28.16
2022-08-27T06:59:36.339Z,28.77
